Time;durP1;ratioP1;P1;durP2;ratioP2;P2;SDS_P1;SDS_P2;PMS_P1;PMS_P2;Temp;Humidity;BMP_temperature;BMP_pressure;BME280_temperature;BME280_humidity;BME280_pressure;Samples;Min_cycle;Max_cycle;Signal;HPM_P1;HPM_P2
2021/09/26 00:01:26;;;;;;;15.32;12.43;;;17.40;91.10;;;;;;4855850;29;20096;-66
2021/09/26 00:03:52;;;;;;;14.50;12.65;;;17.40;91.00;;;;;;4856748;29;20045;-66
2021/09/26 00:06:19;;;;;;;15.80;13.70;;;17.30;90.90;;;;;;4863479;29;20040;-66
2021/09/26 00:08:44;;;;;;;16.00;12.00;;;17.40;91.20;;;;;;4856177;29;20201;-66
2021/09/26 00:11:10;;;;;;;13.70;11.85;;;17.40;90.90;;;;;;4857649;29;20049;-65
2021/09/26 00:13:38;;;;;;;13.25;11.85;;;17.30;90.90;;;;;;4857061;29;20057;-66
2021/09/26 00:16:06;;;;;;;13.25;11.52;;;17.30;91.10;;;;;;4859986;29;20229;-66
2021/09/26 00:18:32;;;;;;;14.73;11.63;;;17.30;91.10;;;;;;4864654;29;20041;-66
2021/09/26 00:20:58;;;;;;;13.40;11.25;;;17.30;91.10;;;;;;4855355;29;20029;-66
2021/09/26 00:23:25;;;;;;;16.38;11.52;;;17.40;91.00;;;;;;4857153;29;20028;-66
2021/09/26 00:25:53;;;;;;;14.88;11.35;;;17.40;90.90;;;;;;4855420;29;20141;-67
2021/09/26 00:28:22;;;;;;;17.05;12.95;;;17.40;90.80;;;;;;4857380;29;20045;-66
2021/09/26 00:30:49;;;;;;;14.38;11.65;;;17.40;90.70;;;;;;4856822;29;20043;-66
2021/09/26 00:33:15;;;;;;;13.38;11.60;;;17.40;90.70;;;;;;4857514;29;20079;-66
2021/09/26 00:35:41;;;;;;;13.43;11.80;;;17.40;90.70;;;;;;4854756;29;20318;-66
2021/09/26 00:38:07;;;;;;;12.90;11.02;;;17.40;90.80;;;;;;4856695;29;20124;-66
2021/09/26 00:40:34;;;;;;;16.17;12.77;;;17.40;90.80;;;;;;4854588;29;20037;-66
2021/09/26 00:42:59;;;;;;;15.95;11.32;;;17.40;90.80;;;;;;4854947;29;20704;-66
2021/09/26 00:45:25;;;;;;;15.18;11.82;;;17.40;90.80;;;;;;4857191;29;20044;-66
2021/09/26 00:47:51;;;;;;;16.02;11.55;;;17.40;90.90;;;;;;4855555;29;20040;-66
2021/09/26 00:50:18;;;;;;;15.57;11.07;;;17.40;91.00;;;;;;4854817;29;20037;-66
2021/09/26 00:52:48;;;;;;;14.18;11.00;;;17.40;91.00;;;;;;4856361;29;20037;-66
2021/09/26 00:55:14;;;;;;;12.13;10.30;;;17.50;91.10;;;;;;4854824;29;20090;-67
2021/09/26 00:57:42;;;;;;;14.45;10.98;;;17.50;91.00;;;;;;4855700;29;20047;-66
2021/09/26 01:00:11;;;;;;;15.65;11.30;;;17.50;91.00;;;;;;4854450;29;20035;-66
2021/09/26 01:02:37;;;;;;;14.65;11.88;;;17.50;91.00;;;;;;4853080;29;20653;-66
2021/09/26 01:05:03;;;;;;;13.80;11.82;;;17.50;91.00;;;;;;4856197;29;20084;-66
2021/09/26 01:07:39;;;;;;;14.55;12.25;;;17.50;91.00;;;;;;4859668;29;20136;-66
2021/09/26 01:10:08;;;;;;;;;;;17.50;91.00;;;;;;4857800;29;20037;-66
2021/09/26 01:12:50;;;;;;;14.32;11.90;;;17.50;91.00;;;;;;4868489;29;19931;-66
2021/09/26 01:15:42;;;;;;;14.13;11.88;;;17.40;91.00;;;;;;4854163;29;20140;-66
2021/09/26 01:18:26;;;;;;;16.77;11.82;;;17.50;91.00;;;;;;4855839;29;20807;-66
2021/09/26 01:21:06;;;;;;;13.70;10.88;;;17.50;90.90;;;;;;4853936;29;20025;-66
2021/09/26 01:23:44;;;;;;;14.55;11.40;;;17.50;90.80;;;;;;4868013;29;20064;-66
2021/09/26 01:26:09;;;;;;;13.65;12.20;;;17.50;90.70;;;;;;4855272;29;20128;-66
2021/09/26 01:28:50;;;;;;;14.23;11.13;;;17.50;90.70;;;;;;4855245;29;20051;-67
2021/09/26 01:31:21;;;;;;;14.77;10.85;;;17.50;90.70;;;;;;4854709;29;20148;-66
2021/09/26 01:34:02;;;;;;;17.30;12.45;;;17.50;90.80;;;;;;4856750;29;20045;-66
2021/09/26 01:36:40;;;;;;;16.05;12.32;;;17.50;90.70;;;;;;4854617;29;20120;-66
2021/09/26 01:39:07;;;;;;;12.65;11.23;;;17.60;90.60;;;;;;4853390;29;20049;-66
2021/09/26 01:41:43;;;;;;;14.60;11.82;;;17.50;90.60;;;;;;4856389;29;20049;-66
2021/09/26 01:44:22;;;;;;;13.45;11.25;;;17.50;90.70;;;;;;4852542;29;20080;-66
2021/09/26 01:46:52;;;;;;;15.13;11.70;;;17.50;90.70;;;;;;4856009;29;20033;-66
2021/09/26 01:49:25;;;;;;;11.75;10.10;;;17.60;90.70;;;;;;4856504;29;20398;-66
2021/09/26 01:51:52;;;;;;;18.48;12.10;;;17.60;90.70;;;;;;4853431;29;20482;-66
2021/09/26 01:54:19;;;;;;;14.95;11.70;;;17.60;90.60;;;;;;4853517;29;20542;-66
2021/09/26 01:56:46;;;;;;;17.88;12.60;;;17.60;90.50;;;;;;4862338;29;20093;-66
2021/09/26 01:59:14;;;;;;;16.58;12.13;;;17.60;90.60;;;;;;4855476;29;20044;-66
2021/09/26 02:01:41;;;;;;;13.23;11.25;;;17.60;90.60;;;;;;4853753;29;20750;-66
2021/09/26 02:04:07;;;;;;;13.52;10.90;;;17.60;90.70;;;;;;4855206;29;20037;-66
2021/09/26 02:06:38;;;;;;;12.10;10.35;;;17.60;90.80;;;;;;4854008;29;20557;-66
2021/09/26 02:09:05;;;;;;;12.95;10.75;;;17.70;90.80;;;;;;4854483;29;20153;-67
2021/09/26 02:11:32;;;;;;;11.93;10.35;;;17.70;90.80;;;;;;4854169;29;20052;-66
2021/09/26 02:14:00;;;;;;;10.60;9.50;;;17.70;90.70;;;;;;4861094;29;20871;-66
2021/09/26 02:16:26;;;;;;;10.65;9.43;;;17.70;90.70;;;;;;4853474;29;20708;-66
2021/09/26 02:18:54;;;;;;;11.98;9.43;;;17.70;90.70;;;;;;4857629;29;20072;-66
2021/09/26 02:21:20;;;;;;;10.60;9.45;;;17.70;90.80;;;;;;4859594;29;20044;-66
2021/09/26 02:23:46;;;;;;;11.20;9.07;;;17.70;90.90;;;;;;4855635;29;20061;-66
2021/09/26 02:26:12;;;;;;;11.68;8.90;;;17.70;90.90;;;;;;4858105;29;20054;-66
2021/09/26 02:28:39;;;;;;;11.60;9.15;;;17.70;90.90;;;;;;4862535;29;20048;-66
2021/09/26 02:31:08;;;;;;;10.50;8.57;;;17.70;90.90;;;;;;4863537;29;20570;-66
2021/09/26 02:33:37;;;;;;;11.57;9.73;;;17.80;90.90;;;;;;4856899;29;20045;-66
2021/09/26 02:36:06;;;;;;;14.45;11.18;;;17.80;90.80;;;;;;4858734;29;20083;-66
2021/09/26 02:38:33;;;;;;;12.45;10.35;;;17.70;90.60;;;;;;4869125;29;20041;-66
2021/09/26 02:41:21;;;;;;;13.73;10.38;;;17.80;90.60;;;;;;4865663;29;20875;-66
2021/09/26 02:44:02;;;;;;;12.10;10.48;;;17.80;90.40;;;;;;4862242;29;20417;-66
2021/09/26 02:46:36;;;;;;;12.90;10.15;;;17.80;90.40;;;;;;4858496;29;20048;-66
2021/09/26 02:49:04;;;;;;;11.48;9.68;;;17.70;90.30;;;;;;4857432;29;20033;-66
2021/09/26 02:51:30;;;;;;;10.50;9.25;;;17.70;90.40;;;;;;4859782;29;20938;-66
2021/09/26 02:53:59;;;;;;;12.05;9.88;;;17.70;90.50;;;;;;4857227;29;20036;-66
2021/09/26 02:56:27;;;;;;;12.30;10.40;;;17.70;90.50;;;;;;4857514;29;20175;-66
2021/09/26 02:58:54;;;;;;;12.98;10.15;;;17.70;90.40;;;;;;4854992;29;20053;-66
2021/09/26 03:01:21;;;;;;;11.32;9.45;;;17.70;90.40;;;;;;4857070;29;20124;-66
2021/09/26 03:03:46;;;;;;;10.75;9.43;;;17.70;90.40;;;;;;4858119;29;20479;-66
2021/09/26 03:06:12;;;;;;;13.07;10.52;;;17.70;90.50;;;;;;4855872;29;20034;-66
2021/09/26 03:08:38;;;;;;;12.48;10.45;;;17.70;90.60;;;;;;4857462;29;20037;-66
2021/09/26 03:11:04;;;;;;;12.43;10.80;;;17.70;90.40;;;;;;4871526;29;20113;-65
2021/09/26 03:13:30;;;;;;;15.05;10.82;;;17.70;90.30;;;;;;4855259;29;20060;-66
2021/09/26 03:15:56;;;;;;;12.20;10.20;;;17.70;90.40;;;;;;4856800;29;20048;-66
2021/09/26 03:18:22;;;;;;;13.13;10.93;;;17.60;90.30;;;;;;4857777;29;20073;-66
2021/09/26 03:20:48;;;;;;;14.65;10.60;;;17.50;90.30;;;;;;4863316;29;20043;-66
2021/09/26 03:23:15;;;;;;;14.95;11.18;;;17.50;90.40;;;;;;4859160;29;20033;-66
2021/09/26 03:25:41;;;;;;;11.63;10.02;;;17.30;90.60;;;;;;4859536;29;20455;-67
2021/09/26 03:28:07;;;;;;;12.95;10.38;;;17.30;90.70;;;;;;4857121;29;20049;-67
2021/09/26 03:30:32;;;;;;;11.48;9.73;;;17.20;90.70;;;;;;4862634;29;20049;-66
2021/09/26 03:32:59;;;;;;;12.75;10.50;;;17.20;90.70;;;;;;4859387;29;20045;-66
2021/09/26 03:35:25;;;;;;;14.10;10.68;;;17.20;90.80;;;;;;4857830;29;20039;-66
2021/09/26 03:37:53;;;;;;;13.63;10.82;;;17.20;90.80;;;;;;4857777;29;20041;-66
2021/09/26 03:40:22;;;;;;;18.40;13.10;;;17.20;90.80;;;;;;4858662;29;20089;-66
2021/09/26 03:42:48;;;;;;;23.83;13.32;;;17.10;91.20;;;;;;4853704;29;20623;-66
2021/09/26 03:45:14;;;;;;;16.67;11.43;;;17.10;91.40;;;;;;4857129;29;20041;-67
2021/09/26 03:47:40;;;;;;;14.20;10.60;;;17.00;91.40;;;;;;4858627;29;20033;-66
2021/09/26 03:50:07;;;;;;;15.63;11.18;;;17.00;91.30;;;;;;4855866;29;20121;-66
2021/09/26 03:52:35;;;;;;;13.43;10.63;;;17.00;91.20;;;;;;4858275;29;20045;-67
2021/09/26 03:55:05;;;;;;;14.65;11.18;;;17.00;91.10;;;;;;4858462;29;20044;-66
2021/09/26 03:57:31;;;;;;;14.13;11.60;;;17.10;91.00;;;;;;4869387;29;20044;-66
2021/09/26 03:59:56;;;;;;;16.13;12.75;;;17.00;90.90;;;;;;4863727;29;20041;-66
2021/09/26 04:02:22;;;;;;;13.45;11.30;;;17.00;90.90;;;;;;4856567;29;20085;-66
2021/09/26 04:04:48;;;;;;;14.15;11.60;;;17.00;90.90;;;;;;4871201;29;20041;-66
2021/09/26 04:07:13;;;;;;;13.75;12.07;;;17.00;90.80;;;;;;4857145;29;20136;-66
2021/09/26 04:09:39;;;;;;;15.13;12.00;;;16.90;90.80;;;;;;4858977;29;20160;-66
2021/09/26 04:12:05;;;;;;;15.27;12.13;;;16.80;90.70;;;;;;4864776;29;20041;-66
2021/09/26 04:14:31;;;;;;;13.60;11.15;;;16.80;90.90;;;;;;4860816;29;20052;-67
2021/09/26 04:16:57;;;;;;;15.07;12.00;;;16.80;91.00;;;;;;4860106;29;20123;-66
2021/09/26 04:19:22;;;;;;;16.00;11.55;;;16.80;91.10;;;;;;4863922;29;20156;-67
2021/09/26 04:21:50;;;;;;;14.80;11.13;;;16.80;91.30;;;;;;4865824;29;20505;-66
2021/09/26 04:24:17;;;;;;;15.25;12.35;;;16.70;91.50;;;;;;4856309;29;20846;-66
2021/09/26 04:26:43;;;;;;;15.35;12.15;;;16.80;91.60;;;;;;4861424;29;20041;-66
2021/09/26 04:29:08;;;;;;;16.48;11.95;;;16.80;91.50;;;;;;4872625;29;20056;-67
2021/09/26 04:31:34;;;;;;;13.20;10.85;;;16.80;91.80;;;;;;4854731;29;20133;-66
2021/09/26 04:34:01;;;;;;;12.68;10.88;;;16.90;91.50;;;;;;4856323;29;20596;-66
2021/09/26 04:36:26;;;;;;;15.63;12.07;;;16.90;91.50;;;;;;4855928;29;20045;-67
2021/09/26 04:38:52;;;;;;;15.90;12.90;;;16.90;91.40;;;;;;4863097;29;20044;-67
2021/09/26 04:41:18;;;;;;;18.33;13.77;;;16.90;91.20;;;;;;4858395;29;20033;-67
2021/09/26 04:43:43;;;;;;;16.30;12.20;;;17.00;91.30;;;;;;4854710;29;20100;-65
2021/09/26 04:46:09;;;;;;;16.73;12.35;;;16.90;91.40;;;;;;4853786;29;20034;-66
2021/09/26 04:48:35;;;;;;;14.55;12.20;;;16.90;91.50;;;;;;4860316;29;20478;-66
2021/09/26 04:51:00;;;;;;;14.00;11.55;;;17.00;91.50;;;;;;4856311;29;20137;-67
2021/09/26 04:53:26;;;;;;;14.85;11.50;;;17.00;91.40;;;;;;4855373;29;20041;-71
2021/09/26 04:55:52;;;;;;;13.55;11.25;;;17.00;91.40;;;;;;4869008;29;20131;-65
2021/09/26 04:58:18;;;;;;;14.23;12.07;;;17.00;91.40;;;;;;4860784;29;20046;-65
2021/09/26 05:00:46;;;;;;;15.90;11.35;;;17.00;91.50;;;;;;4858456;29;20053;-66
2021/09/26 05:03:13;;;;;;;15.35;11.07;;;17.00;91.60;;;;;;4860396;29;20042;-66
2021/09/26 05:05:39;;;;;;;12.55;10.82;;;17.10;91.60;;;;;;4857027;29;20037;-65
2021/09/26 05:08:05;;;;;;;13.98;11.13;;;17.10;91.60;;;;;;4857244;29;20039;-64
2021/09/26 05:10:31;;;;;;;12.02;10.77;;;17.10;91.60;;;;;;4854483;29;20486;-66
2021/09/26 05:12:57;;;;;;;12.50;10.80;;;17.20;91.70;;;;;;4855240;29;20052;-66
2021/09/26 05:15:23;;;;;;;12.77;10.07;;;17.20;91.60;;;;;;4859820;29;20045;-65
2021/09/26 05:17:49;;;;;;;13.93;10.65;;;17.20;91.70;;;;;;4864682;29;20039;-68
2021/09/26 05:20:15;;;;;;;14.43;11.38;;;17.20;91.60;;;;;;4857498;29;20029;-75
2021/09/26 05:22:41;;;;;;;14.80;12.13;;;17.20;91.60;;;;;;4852840;29;20516;-67
2021/09/26 05:25:07;;;;;;;15.65;11.57;;;17.30;91.70;;;;;;4855066;29;20029;-67
2021/09/26 05:27:33;;;;;;;13.35;11.02;;;17.20;91.70;;;;;;4866907;29;20040;-68
2021/09/26 05:29:58;;;;;;;18.63;12.95;;;17.30;91.70;;;;;;4853477;29;20463;-68
2021/09/26 05:32:24;;;;;;;15.52;11.02;;;17.20;91.90;;;;;;4871517;29;20079;-67
2021/09/26 05:34:50;;;;;;;12.60;10.45;;;17.20;91.90;;;;;;4857107;29;20041;-66
2021/09/26 05:37:16;;;;;;;11.98;10.38;;;17.20;91.80;;;;;;4859513;29;20033;-67
2021/09/26 05:39:41;;;;;;;12.00;9.75;;;17.30;91.80;;;;;;4861302;29;20828;-66
2021/09/26 05:42:07;;;;;;;13.88;11.30;;;17.30;91.70;;;;;;4861373;29;20044;-66
2021/09/26 05:44:35;;;;;;;13.68;11.50;;;17.20;91.70;;;;;;4859936;29;20108;-67
2021/09/26 05:47:01;;;;;;;13.40;11.00;;;17.20;91.70;;;;;;4857436;29;20470;-66
2021/09/26 05:49:27;;;;;;;13.98;11.10;;;17.20;91.70;;;;;;4859879;29;20176;-66
2021/09/26 05:51:53;;;;;;;13.20;10.32;;;17.20;91.70;;;;;;4860239;29;20506;-67
2021/09/26 05:54:19;;;;;;;13.70;10.48;;;17.10;91.70;;;;;;4863526;29;20049;-66
2021/09/26 05:56:45;;;;;;;17.35;12.20;;;17.10;91.70;;;;;;4866182;29;20037;-68
2021/09/26 05:59:11;;;;;;;14.10;11.13;;;17.00;92.00;;;;;;4863145;29;20117;-67
2021/09/26 06:01:37;;;;;;;12.70;10.75;;;17.10;92.00;;;;;;4869404;29;20828;-67
2021/09/26 06:04:03;;;;;;;12.65;10.35;;;17.00;92.00;;;;;;4865633;29;20028;-67
2021/09/26 06:06:29;;;;;;;12.18;9.98;;;17.10;92.10;;;;;;4870240;29;20807;-67
2021/09/26 06:08:54;;;;;;;12.90;10.00;;;17.10;92.10;;;;;;4872057;29;20047;-67
2021/09/26 06:11:20;;;;;;;13.60;10.80;;;17.10;92.10;;;;;;4861842;29;20081;-67
2021/09/26 06:13:46;;;;;;;15.90;11.27;;;17.10;92.10;;;;;;4861570;29;20171;-67
2021/09/26 06:16:11;;;;;;;15.82;11.43;;;17.20;92.20;;;;;;4867046;29;20128;-66
2021/09/26 06:18:37;;;;;;;15.60;12.05;;;17.20;92.20;;;;;;4861168;29;20048;-67
2021/09/26 06:21:03;;;;;;;14.18;10.63;;;17.20;92.30;;;;;;4867683;29;20037;-68
2021/09/26 06:23:29;;;;;;;17.05;11.75;;;17.30;92.40;;;;;;4869090;29;20037;-69
2021/09/26 06:25:54;;;;;;;16.55;11.68;;;17.30;92.50;;;;;;4861868;29;20386;-68
2021/09/26 06:28:20;;;;;;;17.23;11.63;;;17.30;92.40;;;;;;4860819;29;20048;-69
2021/09/26 06:30:46;;;;;;;13.57;11.45;;;17.40;92.40;;;;;;4883779;29;20030;-69
2021/09/26 06:33:11;;;;;;;13.63;10.88;;;17.40;92.40;;;;;;4874423;29;20140;-72
2021/09/26 06:35:37;;;;;;;16.23;11.82;;;17.50;92.30;;;;;;4863418;29;20552;-67
2021/09/26 06:38:03;;;;;;;13.95;11.73;;;17.50;92.20;;;;;;4870574;29;20080;-67
2021/09/26 06:40:30;;;;;;;14.05;10.82;;;17.70;92.10;;;;;;4865357;29;20025;-67
2021/09/26 06:42:56;;;;;;;15.27;11.25;;;17.70;91.90;;;;;;4867000;29;20881;-67
2021/09/26 06:45:22;;;;;;;12.45;10.15;;;17.70;91.90;;;;;;4860342;29;20123;-67
2021/09/26 06:47:48;;;;;;;14.35;10.90;;;17.80;91.80;;;;;;4866410;29;20029;-67
2021/09/26 06:50:14;;;;;;;14.52;11.13;;;17.80;91.70;;;;;;4863389;29;20072;-67
2021/09/26 06:52:39;;;;;;;13.02;10.98;;;17.90;91.60;;;;;;4865695;29;20033;-67
2021/09/26 06:55:06;;;;;;;13.45;10.23;;;17.90;91.50;;;;;;4863797;29;20045;-67
2021/09/26 06:57:32;;;;;;;13.48;10.73;;;18.00;91.50;;;;;;4866528;29;20055;-67
2021/09/26 06:59:57;;;;;;;10.95;9.45;;;18.00;91.30;;;;;;4875673;29;20509;-66
2021/09/26 07:02:23;;;;;;;11.68;9.57;;;18.10;91.20;;;;;;4862155;29;20036;-65
2021/09/26 07:04:50;;;;;;;14.95;10.85;;;18.20;91.10;;;;;;4865841;29;20155;-68
2021/09/26 07:07:17;;;;;;;11.55;9.38;;;18.40;90.70;;;;;;4860379;29;20040;-68
2021/09/26 07:09:43;;;;;;;11.38;9.50;;;18.80;89.60;;;;;;4867144;29;20052;-68
2021/09/26 07:12:09;;;;;;;10.10;9.10;;;19.00;88.50;;;;;;4865001;29;20049;-68
2021/09/26 07:14:36;;;;;;;9.73;8.65;;;19.10;88.40;;;;;;4861720;29;20089;-70
2021/09/26 07:17:02;;;;;;;10.98;8.70;;;19.10;88.10;;;;;;4859894;29;20040;-71
2021/09/26 07:19:28;;;;;;;10.57;8.88;;;19.60;87.30;;;;;;4859336;29;20059;-69
2021/09/26 07:21:53;;;;;;;9.82;8.23;;;19.80;84.60;;;;;;4863145;29;20037;-69
2021/09/26 07:24:19;;;;;;;9.95;8.50;;;19.90;84.40;;;;;;4867980;29;20044;-68
2021/09/26 07:26:45;;;;;;;12.52;8.00;;;19.90;84.50;;;;;;4855929;29;20033;-71
2021/09/26 07:29:10;;;;;;;8.35;7.40;;;19.80;84.30;;;;;;4873698;29;20040;-69
2021/09/26 07:31:36;;;;;;;11.73;8.82;;;19.80;84.00;;;;;;4858244;29;20041;-71
2021/09/26 07:34:03;;;;;;;9.93;8.18;;;19.90;83.70;;;;;;4869469;29;20094;-67
2021/09/26 07:36:29;;;;;;;8.88;7.97;;;20.00;83.00;;;;;;4868789;29;20044;-67
2021/09/26 07:38:54;;;;;;;9.35;6.75;;;19.90;82.60;;;;;;4853602;29;20056;-73
2021/09/26 07:41:20;;;;;;;7.32;6.53;;;19.90;82.40;;;;;;4856243;29;20040;-67
2021/09/26 07:43:46;;;;;;;8.27;6.85;;;19.90;82.20;;;;;;4878117;29;20040;-68
2021/09/26 07:46:12;;;;;;;9.27;7.03;;;20.10;81.10;;;;;;4862181;29;20246;-68
2021/09/26 07:48:37;;;;;;;7.63;6.75;;;20.30;80.50;;;;;;4858751;29;20029;-68
2021/09/26 07:51:03;;;;;;;7.38;6.65;;;20.50;81.00;;;;;;4860827;29;20471;-68
2021/09/26 07:53:28;;;;;;;6.97;6.25;;;20.80;78.40;;;;;;4861755;29;20168;-65
2021/09/26 07:55:55;;;;;;;8.30;6.78;;;20.90;78.20;;;;;;4858760;29;20029;-67
2021/09/26 07:58:21;;;;;;;7.38;6.22;;;20.90;78.70;;;;;;4857116;29;20098;-69
2021/09/26 08:00:47;;;;;;;8.30;7.50;;;20.70;79.30;;;;;;4879676;29;20068;-67
2021/09/26 08:03:13;;;;;;;7.43;6.65;;;20.70;78.90;;;;;;4872711;29;20033;-69
2021/09/26 08:05:39;;;;;;;7.53;6.43;;;20.60;80.10;;;;;;4857846;29;20040;-67
2021/09/26 08:08:06;;;;;;;8.00;6.38;;;20.60;79.80;;;;;;4859036;29;20093;-67
2021/09/26 08:10:31;;;;;;;7.90;6.53;;;20.50;78.50;;;;;;4861320;29;20097;-67
2021/09/26 08:12:57;;;;;;;7.00;6.30;;;20.50;80.00;;;;;;4861138;29;20041;-66
2021/09/26 08:15:23;;;;;;;7.63;6.30;;;20.50;80.40;;;;;;4855687;29;20041;-67
2021/09/26 08:17:50;;;;;;;7.32;6.22;;;20.50;80.60;;;;;;4857117;29;20075;-67
2021/09/26 08:20:17;;;;;;;7.72;5.95;;;20.50;80.20;;;;;;4865676;29;20167;-66
2021/09/26 08:22:44;;;;;;;7.85;6.00;;;20.60;80.10;;;;;;4863030;29;20035;-66
2021/09/26 08:25:12;;;;;;;6.53;5.90;;;20.70;79.70;;;;;;4860278;29;20051;-68
2021/09/26 08:27:37;;;;;;;6.70;5.57;;;20.80;79.70;;;;;;4864201;29;20116;-68
2021/09/26 08:30:07;;;;;;;8.00;6.00;;;20.90;79.30;;;;;;4858309;29;20104;-66
2021/09/26 08:32:34;;;;;;;7.03;6.07;;;20.90;79.10;;;;;;4861838;29;20039;-66
2021/09/26 08:35:00;;;;;;;6.47;5.72;;;21.00;78.20;;;;;;4866942;29;20887;-69
2021/09/26 08:37:25;;;;;;;9.07;6.32;;;21.10;78.80;;;;;;4858779;29;20041;-66
2021/09/26 08:39:51;;;;;;;9.23;6.60;;;21.20;78.60;;;;;;4860571;29;20041;-66
2021/09/26 08:42:17;;;;;;;8.80;6.60;;;21.30;77.50;;;;;;4862443;29;20478;-66
2021/09/26 08:44:43;;;;;;;9.38;6.35;;;21.30;75.60;;;;;;4855598;29;20059;-66
2021/09/26 08:47:09;;;;;;;10.07;7.60;;;21.40;75.70;;;;;;4857304;29;20060;-66
2021/09/26 08:49:35;;;;;;;8.88;6.55;;;21.80;74.50;;;;;;4859987;29;20052;-66
2021/09/26 08:52:02;;;;;;;8.02;6.05;;;21.90;73.40;;;;;;4858168;29;20053;-66
2021/09/26 08:54:27;;;;;;;9.60;6.43;;;22.20;73.80;;;;;;4858210;29;20048;-67
2021/09/26 08:56:53;;;;;;;7.20;5.85;;;23.00;70.00;;;;;;4855759;29;20045;-66
2021/09/26 08:59:19;;;;;;;6.28;5.22;;;23.70;67.50;;;;;;4874716;29;20055;-67
2021/09/26 09:01:45;;;;;;;7.32;5.90;;;24.30;65.80;;;;;;4854353;29;20201;-66
2021/09/26 09:04:10;;;;;;;7.55;6.60;;;24.60;64.90;;;;;;4857814;29;20470;-67
2021/09/26 09:06:38;;;;;;;9.05;6.65;;;24.80;64.90;;;;;;4875641;29;20086;-67
2021/09/26 09:09:21;;;;;;;6.55;5.30;;;24.90;64.80;;;;;;4861054;29;20053;-67
2021/09/26 09:12:03;;;;;;;5.35;4.63;;;25.00;64.00;;;;;;4854943;29;20046;-67
2021/09/26 09:14:49;;;;;;;8.65;7.45;;;24.70;62.40;;;;;;4871541;29;20502;-69
2021/09/26 09:17:29;;;;;;;9.73;5.72;;;24.60;64.00;;;;;;4868848;29;20046;-69
2021/09/26 09:20:13;;;;;;;8.60;6.07;;;24.30;64.40;;;;;;4867269;29;20087;-69
2021/09/26 09:22:41;;;;;;;6.20;5.45;;;24.00;64.60;;;;;;4860271;29;20049;-69
2021/09/26 09:25:27;;;;;;;6.65;5.25;;;23.80;65.20;;;;;;4861542;29;20053;-69
2021/09/26 09:27:55;;;;;;;6.25;5.45;;;23.60;65.60;;;;;;4858555;29;20129;-69
2021/09/26 09:30:29;;;;;;;6.45;5.38;;;23.60;66.40;;;;;;4856696;29;20626;-69
2021/09/26 09:32:55;;;;;;;6.38;5.55;;;23.40;65.80;;;;;;4854341;29;20080;-69
2021/09/26 09:35:21;;;;;;;9.38;5.00;;;23.40;67.40;;;;;;4854199;29;20044;-69
2021/09/26 09:37:47;;;;;;;12.45;8.88;;;23.30;67.20;;;;;;4855493;29;20033;-69
2021/09/26 09:40:16;;;;;;;9.32;7.70;;;23.20;67.30;;;;;;4867812;29;20048;-68
2021/09/26 09:42:54;;;;;;;7.88;5.97;;;23.20;68.20;;;;;;4865059;29;20108;-69
2021/09/26 09:45:35;;;;;;;5.95;5.35;;;23.20;68.60;;;;;;4863384;29;20037;-68
2021/09/26 09:48:18;;;;;;;7.10;5.47;;;23.20;67.70;;;;;;4861541;29;20774;-70
2021/09/26 09:51:00;;;;;;;5.57;5.00;;;23.30;66.80;;;;;;4871193;29;20070;-71
2021/09/26 09:53:35;;;;;;;6.18;5.57;;;23.60;67.60;;;;;;4852495;29;20060;-71
2021/09/26 09:56:12;;;;;;;5.13;4.60;;;23.60;65.70;;;;;;4854315;29;20093;-71
2021/09/26 09:58:41;;;;;;;8.02;5.28;;;23.70;67.10;;;;;;4862657;29;20047;-71
2021/09/26 10:01:15;;;;;;;6.45;5.30;;;23.70;67.20;;;;;;4860380;29;20398;-71
2021/09/26 10:03:46;;;;;;;8.40;4.93;;;23.70;67.10;;;;;;4862478;29;20033;-70
2021/09/26 10:06:20;;;;;;;6.88;3.80;;;23.70;67.90;;;;;;4860156;29;20033;-71
2021/09/26 10:08:46;;;;;;;6.57;4.30;;;23.60;65.80;;;;;;4854696;29;20034;-70
2021/09/26 10:11:12;;;;;;;7.15;5.72;;;23.60;66.20;;;;;;4855113;29;20049;-71
2021/09/26 10:13:38;;;;;;;10.50;7.75;;;23.60;66.90;;;;;;4856209;29;20037;-71
2021/09/26 10:16:09;;;;;;;6.10;5.38;;;23.50;67.20;;;;;;4855724;29;20121;-71
2021/09/26 10:18:36;;;;;;;8.57;5.32;;;23.50;67.20;;;;;;4853343;29;20042;-69
2021/09/26 10:21:04;;;;;;;6.20;4.90;;;23.50;67.80;;;;;;4855114;29;20052;-69
2021/09/26 10:23:31;;;;;;;7.25;5.07;;;23.60;67.10;;;;;;4853700;29;20041;-68
2021/09/26 10:25:57;;;;;;;7.30;6.10;;;23.70;66.80;;;;;;4859509;29;20064;-68
2021/09/26 10:28:29;;;;;;;6.63;5.93;;;23.80;66.30;;;;;;4854599;29;20127;-68
2021/09/26 10:30:57;;;;;;;5.38;4.05;;;23.80;66.20;;;;;;4865763;29;20147;-70
2021/09/26 10:33:25;;;;;;;4.60;4.07;;;23.90;65.00;;;;;;4856889;29;20040;-70
2021/09/26 10:35:52;;;;;;;6.32;4.50;;;23.80;64.40;;;;;;4869583;29;20136;-70
2021/09/26 10:38:18;;;;;;;7.95;6.50;;;23.80;63.50;;;;;;4854533;29;20045;-70
2021/09/26 10:40:44;;;;;;;5.97;4.65;;;23.80;65.00;;;;;;4858780;29;20052;-70
2021/09/26 10:43:30;;;;;;;8.82;6.35;;;23.80;63.80;;;;;;4867595;29;20033;-70
2021/09/26 10:46:15;;;;;;;11.55;5.78;;;23.80;64.30;;;;;;4869049;29;20056;-70
2021/09/26 10:48:56;;;;;;;5.80;5.13;;;23.80;64.10;;;;;;4857957;29;20052;-70
2021/09/26 10:51:42;;;;;;;6.38;5.45;;;23.90;65.10;;;;;;4863567;29;20037;-70
2021/09/26 10:54:43;;;;;;;6.88;6.03;;;23.80;64.50;;;;;;4867406;29;20070;-70
2021/09/26 10:57:12;;;;;;;6.28;4.95;;;23.90;65.10;;;;;;4824803;29;20610;-70
2021/09/26 10:59:53;;;;;;;7.05;4.53;;;23.90;63.50;;;;;;4855275;29;20405;-70
2021/09/26 11:02:25;;;;;;;6.15;4.60;;;23.90;64.80;;;;;;4856979;29;20045;-70
2021/09/26 11:04:57;;;;;;;6.80;5.68;;;24.00;64.10;;;;;;4859269;29;20042;-70
2021/09/26 11:07:28;;;;;;;9.60;7.88;;;24.00;63.40;;;;;;4852417;29;20045;-71
2021/09/26 11:09:59;;;;;;;9.65;7.28;;;24.00;63.70;;;;;;4859102;29;20046;-70
2021/09/26 11:12:48;;;;;;;5.95;4.70;;;24.10;64.10;;;;;;4874909;29;20045;-70
2021/09/26 11:15:20;;;;;;;5.65;4.72;;;24.00;63.60;;;;;;4863660;29;20044;-71
2021/09/26 11:17:54;;;;;;;5.55;4.78;;;24.00;63.60;;;;;;4858707;29;20128;-70
2021/09/26 11:20:26;;;;;;;5.68;4.32;;;24.00;63.40;;;;;;4852084;29;20192;-70
2021/09/26 11:23:07;;;;;;;7.55;6.60;;;24.10;63.00;;;;;;4854054;29;20057;-70
2021/09/26 11:25:55;;;;;;;6.07;4.80;;;24.10;64.40;;;;;;4863840;29;20032;-70
2021/09/26 11:28:29;;;;;;;5.43;4.88;;;24.20;64.70;;;;;;4856132;29;20053;-70
2021/09/26 11:30:58;;;;;;;5.40;4.90;;;24.20;64.00;;;;;;4878691;29;20041;-71
2021/09/26 11:33:24;;;;;;;4.68;4.10;;;24.30;63.70;;;;;;4862101;29;20074;-71
2021/09/26 11:35:50;;;;;;;6.10;4.50;;;24.40;63.50;;;;;;4867332;29;20518;-71
2021/09/26 11:38:22;;;;;;;7.22;4.82;;;24.50;62.50;;;;;;4855565;29;20075;-70
2021/09/26 11:41:02;;;;;;;6.43;3.92;;;24.50;62.80;;;;;;4854529;29;20830;-70
2021/09/26 11:43:32;;;;;;;5.25;4.20;;;24.60;63.20;;;;;;4859856;29;20030;-71
2021/09/26 11:46:00;;;;;;;4.55;3.95;;;24.60;62.00;;;;;;4868968;29;20036;-70
2021/09/26 11:48:32;;;;;;;5.72;4.07;;;24.50;61.80;;;;;;4856280;29;20052;-70
2021/09/26 11:51:03;;;;;;;4.90;4.00;;;24.60;62.80;;;;;;4862735;29;20045;-70
2021/09/26 11:53:29;;;;;;;4.82;4.32;;;24.60;62.80;;;;;;4857355;29;20056;-70
2021/09/26 11:55:56;;;;;;;6.28;3.95;;;24.70;61.60;;;;;;4856011;29;20715;-70
2021/09/26 11:58:28;;;;;;;4.28;3.78;;;24.70;61.80;;;;;;4861667;29;20045;-70
2021/09/26 12:00:53;;;;;;;5.32;3.60;;;24.70;61.20;;;;;;4854798;29;20173;-70
2021/09/26 12:03:25;;;;;;;4.50;3.80;;;24.70;61.70;;;;;;4858759;29;20734;-70
2021/09/26 12:05:52;;;;;;;6.63;4.05;;;24.70;62.20;;;;;;4862322;29;20140;-70
2021/09/26 12:08:18;;;;;;;4.88;3.58;;;24.90;61.00;;;;;;4858420;29;20049;-70
2021/09/26 12:10:45;;;;;;;8.23;4.30;;;24.90;61.60;;;;;;4870473;29;20044;-70
2021/09/26 12:13:14;;;;;;;5.85;4.00;;;24.90;61.00;;;;;;4869333;29;20128;-69
2021/09/26 12:15:40;;;;;;;4.15;3.60;;;25.00;60.40;;;;;;4858837;29;20064;-69
2021/09/26 12:18:06;;;;;;;6.07;3.95;;;25.00;60.80;;;;;;4855737;29;20558;-68
2021/09/26 12:20:32;;;;;;;4.63;4.00;;;25.10;59.60;;;;;;4858902;29;20033;-67
2021/09/26 12:23:00;;;;;;;4.30;3.92;;;25.20;59.70;;;;;;4859364;29;20041;-71
2021/09/26 12:25:37;;;;;;;5.03;3.97;;;25.20;59.80;;;;;;4861958;29;20035;-71
2021/09/26 12:28:07;;;;;;;4.10;3.70;;;25.20;59.60;;;;;;4870348;29;20557;-71
2021/09/26 12:30:39;;;;;;;5.78;4.50;;;25.20;59.40;;;;;;4874198;29;20034;-71
2021/09/26 12:33:09;;;;;;;8.18;6.82;;;25.10;59.90;;;;;;4864967;29;20041;-71
2021/09/26 12:35:43;;;;;;;7.93;6.78;;;25.10;60.00;;;;;;4868565;29;20045;-71
2021/09/26 12:38:21;;;;;;;11.52;8.23;;;25.20;60.60;;;;;;4873378;29;20048;-71
2021/09/26 12:40:55;;;;;;;11.10;9.43;;;25.20;60.80;;;;;;4858845;29;20053;-71
2021/09/26 12:43:24;;;;;;;6.15;4.93;;;25.30;58.90;;;;;;4856179;29;20040;-70